International Virtual Aviation Organisation

Russian Federation and Kazakhstan MCD

 
UHPP 032000Z 01004MPS 9999 NSC M16/M19 Q1001 R34L/CLRD70 NOSIG RMK QFE747/0996
QNH:(hPa/inHg/mmHg)1001 / 29.56 / 751
QFE:(hPa/inHg/mmHg)996 / 29.42 / 747
Temperature-16
Dew Point-19
Visibility> 10000
Weather
Cloud Cover
Transition Height2400 m./8100 ft.
Transition LevelFL100
SQUAWK